Time;durP1;ratioP1;P1;durP2;ratioP2;P2;SDS_P1;SDS_P2;PMS_P1;PMS_P2;Temp;Humidity;BMP_temperature;BMP_pressure;BME280_temperature;BME280_humidity;BME280_pressure;Samples;Min_cycle;Max_cycle;Signal;HPM_P1;HPM_P2
2024/01/22 00:00:43;;;;;;;3.90;2.40;;;6.20;99.50;;;;;;4991354;28;20651;-64
2024/01/22 00:03:10;;;;;;;5.13;3.27;;;6.20;99.40;;;;;;4977842;28;20488;-64
2024/01/22 00:05:37;;;;;;;5.23;2.40;;;6.10;99.40;;;;;;5010309;28;20858;-64
2024/01/22 00:08:07;;;;;;;3.23;2.40;;;6.10;99.40;;;;;;5012792;28;20891;-65
2024/01/22 00:10:34;;;;;;;10.37;2.90;;;6.10;99.30;;;;;;5013780;28;20541;-64
2024/01/22 00:13:00;;;;;;;27.23;4.10;;;6.00;99.40;;;;;;4999415;28;20493;-64
2024/01/22 00:15:31;;;;;;;3.97;2.97;;;6.10;99.50;;;;;;4991037;28;20709;-64
2024/01/22 00:17:58;;;;;;;9.63;1.90;;;6.10;99.50;;;;;;4992953;28;20490;-65
2024/01/22 00:20:25;;;;;;;7.83;3.03;;;6.00;99.60;;;;;;4955068;28;20489;-66
2024/01/22 00:22:52;;;;;;;3.30;2.80;;;6.10;99.70;;;;;;4975985;28;20477;-64
2024/01/22 00:25:20;;;;;;;5.17;2.23;;;6.10;99.80;;;;;;4987898;28;20481;-63
2024/01/22 00:27:47;;;;;;;19.80;4.00;;;6.10;99.60;;;;;;4994147;28;22741;-63
2024/01/22 00:30:14;;;;;;;14.60;3.13;;;6.10;99.60;;;;;;4994737;28;20472;-64
2024/01/22 00:32:41;;;;;;;3.40;1.50;;;6.20;99.70;;;;;;4958983;28;20539;-65
2024/01/22 00:35:09;;;;;;;11.03;4.27;;;6.20;99.60;;;;;;4965023;28;20518;-63
2024/01/22 00:37:36;;;;;;;4.10;2.37;;;6.10;99.80;;;;;;4957793;28;20995;-63
2024/01/22 00:40:03;;;;;;;6.33;4.30;;;6.10;99.90;;;;;;4984862;28;20547;-64
2024/01/22 00:42:31;;;;;;;6.70;2.50;;;6.20;99.90;;;;;;4990034;28;20932;-67
2024/01/22 00:44:58;;;;;;;5.97;3.13;;;6.10;99.90;;;;;;4987926;28;20489;-66
2024/01/22 00:47:25;;;;;;;6.90;3.00;;;6.10;99.90;;;;;;4970573;28;20549;-63
2024/01/22 00:49:52;;;;;;;2.97;2.23;;;6.20;99.90;;;;;;4981242;28;20561;-63
2024/01/22 00:52:19;;;;;;;2.63;1.60;;;6.20;99.90;;;;;;4996545;28;20568;-63
2024/01/22 00:54:45;;;;;;;23.13;2.40;;;6.20;99.90;;;;;;4991222;28;21259;-65
2024/01/22 00:57:12;;;;;;;2.13;1.17;;;6.20;99.90;;;;;;4999747;28;20954;-63
2024/01/22 00:59:41;;;;;;;5.03;2.53;;;6.30;99.90;;;;;;4979744;28;20506;-62
2024/01/22 01:02:08;;;;;;;4.43;3.10;;;6.30;99.90;;;;;;5008576;28;20503;-64
2024/01/22 01:04:35;;;;;;;16.47;2.33;;;6.40;99.90;;;;;;5007271;28;20574;-64
2024/01/22 01:07:01;;;;;;;5.97;3.20;;;6.30;99.90;;;;;;4996125;28;21052;-63
2024/01/22 01:09:30;;;;;;;4.50;1.60;;;6.30;99.90;;;;;;4985737;28;20580;-64
2024/01/22 01:11:57;;;;;;;14.50;4.57;;;6.30;99.90;;;;;;4965215;28;20489;-63
2024/01/22 01:14:26;;;;;;;7.03;3.23;;;6.20;99.90;;;;;;4972640;28;21035;-63
2024/01/22 01:16:54;;;;;;;2.70;2.00;;;6.20;99.90;;;;;;4998074;28;20883;-65
2024/01/22 01:19:21;;;;;;;17.03;2.63;;;6.30;99.90;;;;;;4984975;28;20473;-63
2024/01/22 01:21:48;;;;;;;13.90;3.10;;;6.30;99.90;;;;;;4971820;28;20818;-64
2024/01/22 01:24:15;;;;;;;13.83;3.67;;;6.40;99.80;;;;;;4999166;28;20836;-65
2024/01/22 01:26:42;;;;;;;2.67;1.20;;;6.50;99.80;;;;;;5013050;28;21856;-63
2024/01/22 01:29:09;;;;;;;18.97;4.27;;;6.40;99.60;;;;;;4983807;28;20480;-65
2024/01/22 01:31:36;;;;;;;8.63;3.67;;;6.40;99.60;;;;;;4993829;28;20758;-64
2024/01/22 01:34:05;;;;;;;10.63;3.10;;;6.40;99.70;;;;;;5000441;28;20479;-62
2024/01/22 01:36:32;;;;;;;7.00;3.60;;;6.40;99.60;;;;;;5006515;28;20923;-62
2024/01/22 01:38:59;;;;;;;16.40;4.40;;;6.40;99.60;;;;;;4998853;28;20746;-63
2024/01/22 01:41:25;;;;;;;3.83;2.77;;;6.40;99.50;;;;;;4998654;28;20496;-63
2024/01/22 01:43:56;;;;;;;6.40;1.90;;;;;;;;;;4996389;28;20491;-64
2024/01/22 01:46:23;;;;;;;8.13;3.50;;;6.60;99.50;;;;;;5008090;28;20472;-63
2024/01/22 01:48:51;;;;;;;7.43;4.37;;;6.40;99.30;;;;;;4978985;28;20484;-64
2024/01/22 01:51:20;;;;;;;3.67;1.73;;;6.60;99.50;;;;;;5010400;28;20481;-64
2024/01/22 01:53:47;;;;;;;5.67;2.87;;;6.60;99.40;;;;;;5009799;28;20472;-63
2024/01/22 01:56:15;;;;;;;3.33;2.10;;;6.60;99.50;;;;;;4999491;28;20476;-62
2024/01/22 01:58:42;;;;;;;5.40;2.13;;;6.60;99.40;;;;;;5001589;28;20595;-63
2024/01/22 02:01:09;;;;;;;15.03;2.90;;;6.80;99.30;;;;;;4996743;28;20530;-62
2024/01/22 02:03:36;;;;;;;14.10;3.00;;;6.80;99.30;;;;;;5007094;28;20473;-62
2024/01/22 02:06:03;;;;;;;5.77;3.10;;;6.80;99.10;;;;;;5008391;28;20526;-63
2024/01/22 02:08:31;;;;;;;4.40;2.43;;;6.80;98.80;;;;;;4990578;28;20477;-62
2024/01/22 02:10:58;;;;;;;5.77;3.07;;;6.80;98.70;;;;;;4962614;28;20485;-63
2024/01/22 02:13:28;;;;;;;9.40;2.40;;;6.90;98.90;;;;;;4967843;28;20504;-62
2024/01/22 02:15:55;;;;;;;4.80;3.30;;;6.90;98.80;;;;;;4993314;28;21862;-62
2024/01/22 02:18:22;;;;;;;4.00;2.50;;;7.00;98.70;;;;;;5014236;28;20476;-62
2024/01/22 02:20:49;;;;;;;3.03;2.53;;;6.90;98.60;;;;;;4997832;28;20480;-63
2024/01/22 02:23:17;;;;;;;6.87;2.97;;;6.90;98.50;;;;;;4946231;28;20473;-62
2024/01/22 02:25:45;;;;;;;6.37;2.57;;;7.10;98.50;;;;;;5009408;28;20655;-62
2024/01/22 02:28:12;;;;;;;8.93;3.73;;;7.00;98.30;;;;;;5003024;28;20551;-62
2024/01/22 02:30:39;;;;;;;13.23;3.20;;;;;;;;;;5008734;28;20483;-60
2024/01/22 02:33:06;;;;;;;15.17;2.60;;;7.10;98.30;;;;;;5003128;28;20476;-62
2024/01/22 02:35:33;;;;;;;7.90;3.60;;;7.00;98.00;;;;;;5002477;28;20527;-62
2024/01/22 02:37:59;;;;;;;15.03;3.63;;;7.00;98.00;;;;;;5007591;28;20480;-60
2024/01/22 02:40:28;;;;;;;7.73;4.10;;;7.00;98.00;;;;;;5014327;28;20531;-64
2024/01/22 02:42:55;;;;;;;4.83;2.77;;;7.00;98.00;;;;;;5013551;28;20554;-64
2024/01/22 02:45:21;;;;;;;10.60;3.67;;;6.90;98.00;;;;;;5004924;28;20497;-64
2024/01/22 02:47:48;;;;;;;12.20;3.70;;;6.90;98.10;;;;;;5015393;28;20530;-66
2024/01/22 02:50:15;;;;;;;6.70;3.50;;;6.90;98.10;;;;;;5017321;28;20473;-65
2024/01/22 02:52:43;;;;;;;9.50;3.00;;;;;;;;;;5016257;28;20488;-66
2024/01/22 02:55:10;;;;;;;5.00;3.00;;;6.90;98.40;;;;;;5016297;28;20553;-65
2024/01/22 02:57:38;;;;;;;5.60;3.40;;;6.80;98.30;;;;;;5015524;28;20875;-62
2024/01/22 03:00:08;;;;;;;3.77;2.47;;;6.80;98.30;;;;;;4970904;28;20470;-65
2024/01/22 03:02:35;;;;;;;6.37;3.47;;;6.80;98.00;;;;;;4958210;28;20487;-64
2024/01/22 03:05:03;;;;;;;7.20;3.77;;;6.80;97.80;;;;;;5001440;28;20534;-64
2024/01/22 03:07:30;;;;;;;15.90;3.40;;;6.90;97.90;;;;;;4978178;28;20477;-67
2024/01/22 03:09:56;;;;;;;11.50;2.17;;;7.00;97.70;;;;;;4978004;28;20481;-64
2024/01/22 03:12:23;;;;;;;14.60;3.20;;;6.90;97.40;;;;;;4982824;28;20766;-66
2024/01/22 03:14:52;;;;;;;5.90;3.20;;;6.90;97.50;;;;;;4977447;28;20552;-65
2024/01/22 03:17:19;;;;;;;4.03;2.60;;;6.90;97.60;;;;;;5003520;28;20484;-66
2024/01/22 03:19:46;;;;;;;2.57;2.30;;;;;;;;;;4980334;28;20876;-63
2024/01/22 03:22:13;;;;;;;9.97;2.50;;;6.80;97.30;;;;;;5007819;28;20481;-64
2024/01/22 03:24:44;;;;;;;9.83;3.10;;;6.90;97.30;;;;;;5011098;28;20488;-63
2024/01/22 03:27:11;;;;;;;14.10;2.83;;;6.90;97.30;;;;;;5013251;28;20481;-65
2024/01/22 03:29:38;;;;;;;9.53;2.83;;;6.90;97.30;;;;;;4988847;28;20484;-65
2024/01/22 03:32:07;;;;;;;3.73;2.77;;;6.80;97.10;;;;;;4936461;28;20565;-67
2024/01/22 03:34:33;;;;;;;6.63;2.27;;;6.90;97.00;;;;;;4992237;28;20989;-63
2024/01/22 03:37:00;;;;;;;6.90;2.17;;;7.10;97.20;;;;;;5015274;28;20923;-64
2024/01/22 03:39:27;;;;;;;3.70;2.37;;;6.90;97.20;;;;;;5016672;28;20876;-66
2024/01/22 03:41:54;;;;;;;18.13;4.13;;;7.00;97.00;;;;;;4988076;28;20488;-64
2024/01/22 03:44:21;;;;;;;10.73;3.40;;;7.00;96.90;;;;;;5001834;28;20485;-66
2024/01/22 03:46:48;;;;;;;15.53;3.60;;;7.00;97.10;;;;;;5015391;28;20752;-64
2024/01/22 03:49:16;;;;;;;4.70;2.90;;;6.90;97.00;;;;;;5014937;28;20548;-64
2024/01/22 03:51:43;;;;;;;9.83;2.03;;;6.80;97.10;;;;;;5016757;28;20489;-65
2024/01/22 03:54:10;;;;;;;15.13;3.03;;;6.90;97.10;;;;;;5013431;28;20487;-63
2024/01/22 03:56:37;;;;;;;12.50;3.00;;;7.00;97.10;;;;;;5000500;28;20480;-64
2024/01/22 03:59:04;;;;;;;2.33;2.03;;;7.00;96.90;;;;;;5011303;28;20958;-63
2024/01/22 04:01:31;;;;;;;4.83;2.27;;;7.10;96.90;;;;;;5014766;28;20539;-64
2024/01/22 04:03:58;;;;;;;5.37;3.27;;;7.10;96.80;;;;;;5005108;28;20767;-64
2024/01/22 04:06:26;;;;;;;3.63;2.77;;;7.20;97.00;;;;;;5013939;28;20858;-64
2024/01/22 04:08:53;;;;;;;8.83;3.23;;;7.20;97.00;;;;;;5005987;28;20563;-66
2024/01/22 04:11:20;;;;;;;6.40;2.70;;;7.10;96.90;;;;;;5010207;28;21020;-63
2024/01/22 04:13:47;;;;;;;7.20;3.20;;;7.20;97.10;;;;;;4985370;28;20493;-63
2024/01/22 04:16:15;;;;;;;12.23;2.70;;;7.20;97.60;;;;;;5011770;28;20477;-65
2024/01/22 04:18:42;;;;;;;4.73;2.10;;;7.30;98.00;;;;;;5013210;28;20828;-63
2024/01/22 04:21:09;;;;;;;20.37;3.80;;;;;;;;;;5010722;28;20484;-65
2024/01/22 04:23:37;;;;;;;4.30;2.70;;;7.40;98.60;;;;;;5009984;28;20476;-67
2024/01/22 04:26:05;;;;;;;6.90;2.00;;;7.50;98.80;;;;;;5012341;28;20472;-64
2024/01/22 04:28:32;;;;;;;6.40;2.00;;;7.60;98.90;;;;;;4985814;28;20496;-64
2024/01/22 04:30:59;;;;;;;9.20;2.80;;;7.60;99.10;;;;;;5012630;28;20562;-63
2024/01/22 04:33:26;;;;;;;3.37;2.43;;;7.70;99.10;;;;;;5012299;28;20899;-63
2024/01/22 04:35:53;;;;;;;2.90;1.70;;;7.80;99.10;;;;;;5014790;28;20468;-65
2024/01/22 04:38:20;;;;;;;2.67;1.13;;;7.70;99.10;;;;;;4996048;28;20481;-65
2024/01/22 04:40:48;;;;;;;4.17;2.33;;;7.80;99.00;;;;;;5015018;28;20475;-65
2024/01/22 04:43:16;;;;;;;12.57;2.60;;;7.80;99.00;;;;;;5014093;28;20479;-65
2024/01/22 04:45:43;;;;;;;4.53;2.40;;;7.80;99.00;;;;;;5013171;28;20485;-67
2024/01/22 04:48:10;;;;;;;4.30;2.20;;;7.80;99.00;;;;;;5014248;28;20480;-66
2024/01/22 04:50:37;;;;;;;12.10;2.73;;;7.80;99.40;;;;;;5014407;28;20480;-65
2024/01/22 04:53:04;;;;;;;4.93;2.30;;;7.80;99.40;;;;;;5002923;28;20484;-64
2024/01/22 04:55:30;;;;;;;33.57;4.00;;;7.80;99.20;;;;;;5013473;28;20495;-65
2024/01/22 04:58:00;;;;;;;7.03;2.93;;;7.70;99.30;;;;;;5012564;28;20477;-65
2024/01/22 05:00:27;;;;;;;5.30;1.53;;;7.80;99.40;;;;;;5013727;28;20572;-66
2024/01/22 05:02:53;;;;;;;7.83;2.30;;;7.80;99.40;;;;;;5011787;28;20535;-64
2024/01/22 05:05:20;;;;;;;9.60;2.27;;;7.80;99.60;;;;;;5012014;28;20483;-62
2024/01/22 05:07:47;;;;;;;2.10;1.80;;;7.80;99.70;;;;;;5013260;28;20484;-63
2024/01/22 05:10:15;;;;;;;3.80;2.00;;;7.90;99.80;;;;;;5010648;28;20486;-62
2024/01/22 05:12:42;;;;;;;2.20;1.27;;;7.90;99.60;;;;;;5013811;28;20869;-62
2024/01/22 05:15:11;;;;;;;7.70;2.37;;;7.90;99.60;;;;;;5013455;28;20546;-61
2024/01/22 05:17:38;;;;;;;5.03;2.50;;;7.90;99.80;;;;;;5013098;28;20563;-62
2024/01/22 05:20:06;;;;;;;3.23;1.80;;;7.90;99.80;;;;;;4985205;28;20488;-63
2024/01/22 05:22:33;;;;;;;10.53;2.50;;;7.90;99.80;;;;;;5014022;28;20765;-62
2024/01/22 05:25:00;;;;;;;5.23;2.43;;;7.90;99.70;;;;;;5012493;28;20477;-60
2024/01/22 05:27:27;;;;;;;8.10;1.60;;;7.90;99.70;;;;;;5012985;28;20480;-64
2024/01/22 05:29:54;;;;;;;10.30;1.90;;;7.90;99.50;;;;;;4992994;28;20474;-64
2024/01/22 05:32:22;;;;;;;6.60;3.10;;;7.80;99.20;;;;;;5012706;28;21116;-66
2024/01/22 05:34:49;;;;;;;5.13;2.70;;;7.70;98.90;;;;;;5001852;28;20479;-65
2024/01/22 05:37:16;;;;;;;11.50;3.07;;;7.90;99.00;;;;;;5012865;28;20542;-65
2024/01/22 05:39:42;;;;;;;5.10;2.20;;;7.90;98.70;;;;;;5011778;28;20512;-65
2024/01/22 05:42:09;;;;;;;2.77;1.93;;;7.90;98.50;;;;;;5014067;28;20486;-64
2024/01/22 05:44:36;;;;;;;7.73;2.63;;;8.00;98.50;;;;;;5011973;28;20647;-67
2024/01/22 05:47:03;;;;;;;2.00;1.57;;;8.10;98.30;;;;;;5014830;28;20481;-65
2024/01/22 05:49:31;;;;;;;3.00;2.17;;;8.10;98.40;;;;;;4998440;28;20481;-63
2024/01/22 05:51:58;;;;;;;11.60;3.03;;;8.20;98.30;;;;;;4989748;28;20555;-66
2024/01/22 05:54:25;;;;;;;3.07;1.87;;;8.30;98.30;;;;;;5013254;28;20477;-66
2024/01/22 05:56:52;;;;;;;2.60;1.87;;;8.30;98.30;;;;;;5007726;28;20727;-66
2024/01/22 05:59:19;;;;;;;3.20;2.20;;;8.30;98.40;;;;;;5014106;28;20468;-64
2024/01/22 06:01:46;;;;;;;5.70;1.70;;;8.30;98.60;;;;;;5014346;28;21007;-68
2024/01/22 06:04:15;;;;;;;43.60;3.50;;;;;;;;;;5013112;28;20472;-64
2024/01/22 06:06:43;;;;;;;2.27;1.10;;;8.40;98.80;;;;;;4986172;28;20477;-66
2024/01/22 06:09:10;;;;;;;4.23;2.30;;;8.40;99.00;;;;;;5014448;28;20522;-67
2024/01/22 06:11:37;;;;;;;24.67;3.10;;;8.50;99.00;;;;;;5003322;28;20479;-64
2024/01/22 06:14:04;;;;;;;5.50;2.83;;;8.50;98.90;;;;;;5011609;28;20473;-65
2024/01/22 06:16:31;;;;;;;4.17;2.17;;;8.60;99.00;;;;;;5012658;28;20480;-66
2024/01/22 06:18:58;;;;;;;12.73;2.83;;;8.60;99.00;;;;;;5013128;28;20921;-65
2024/01/22 06:21:25;;;;;;;3.77;2.77;;;8.70;99.10;;;;;;5012096;28;20575;-65
2024/01/22 06:23:54;;;;;;;2.20;1.50;;;8.70;99.20;;;;;;5010829;28;20792;-66
2024/01/22 06:26:21;;;;;;;11.00;2.77;;;8.80;99.20;;;;;;5004561;28;20539;-66
2024/01/22 06:28:48;;;;;;;2.20;1.90;;;8.60;99.20;;;;;;4968436;28;20492;-65
2024/01/22 06:31:15;;;;;;;8.83;2.03;;;8.70;99.40;;;;;;4998779;28;21153;-66
2024/01/22 06:33:42;;;;;;;3.17;2.07;;;8.70;99.30;;;;;;5006015;28;20539;-65
2024/01/22 06:36:09;;;;;;;2.87;1.60;;;8.70;99.50;;;;;;5010348;28;20481;-66
2024/01/22 06:38:36;;;;;;;26.73;3.50;;;8.70;99.50;;;;;;5014249;28;20483;-66
2024/01/22 06:41:10;;;;;;;11.87;3.83;;;8.70;99.60;;;;;;5011014;28;20484;-65
2024/01/22 06:43:37;;;;;;;3.40;2.20;;;8.60;99.60;;;;;;5011448;28;20824;-63
2024/01/22 06:46:04;;;;;;;2.83;1.93;;;8.40;99.90;;;;;;5005709;28;20512;-64
2024/01/22 06:48:31;;;;;;;5.63;3.27;;;8.40;99.90;;;;;;5006162;28;20534;-62
2024/01/22 06:50:58;;;;;;;7.37;3.43;;;8.10;99.90;;;;;;5013065;28;20480;-64
2024/01/22 06:53:24;;;;;;;7.33;2.40;;;8.00;99.90;;;;;;5009443;28;20570;-64
2024/01/22 06:55:51;;;;;;;9.40;2.20;;;7.90;99.90;;;;;;4994156;28;20570;-63
2024/01/22 06:58:20;;;;;;;2.57;1.53;;;7.90;99.90;;;;;;4997314;28;20527;-64
2024/01/22 07:00:47;;;;;;;11.43;2.50;;;7.80;99.90;;;;;;5006150;28;20495;-64
2024/01/22 07:03:14;;;;;;;6.23;3.87;;;7.90;99.90;;;;;;4974327;28;20476;-64
2024/01/22 07:05:41;;;;;;;8.53;3.70;;;7.80;99.90;;;;;;4993504;28;21150;-61
2024/01/22 07:08:08;;;;;;;9.63;2.53;;;7.60;99.90;;;;;;4976702;28;20480;-61
2024/01/22 07:10:35;;;;;;;6.83;2.07;;;7.60;99.90;;;;;;4967752;28;20484;-62
2024/01/22 07:13:03;;;;;;;19.03;2.77;;;7.60;99.90;;;;;;4993378;28;20473;-62
2024/01/22 07:15:31;;;;;;;6.03;3.00;;;7.60;99.90;;;;;;4995948;28;20961;-62
2024/01/22 07:17:58;;;;;;;2.47;1.40;;;7.60;99.90;;;;;;4968036;28;20478;-64
2024/01/22 07:20:25;;;;;;;8.00;2.40;;;7.60;99.90;;;;;;4991165;28;20484;-62
2024/01/22 07:22:53;;;;;;;3.60;2.60;;;7.60;99.90;;;;;;5000299;28;20476;-64
2024/01/22 07:25:21;;;;;;;8.73;3.17;;;7.80;99.90;;;;;;4977547;28;20485;-62
2024/01/22 07:27:48;;;;;;;7.63;2.20;;;8.00;99.90;;;;;;4985185;28;20493;-64
2024/01/22 07:30:16;;;;;;;3.20;2.30;;;7.80;99.90;;;;;;5010404;28;20928;-65
2024/01/22 07:32:45;;;;;;;4.40;2.27;;;8.00;99.90;;;;;;4972662;28;20492;-63
2024/01/22 07:35:13;;;;;;;5.33;2.13;;;8.00;99.90;;;;;;4972690;28;20464;-64
2024/01/22 07:37:42;;;;;;;7.30;1.93;;;8.00;99.90;;;;;;5015610;28;20488;-62
2024/01/22 07:40:10;;;;;;;3.47;2.57;;;8.00;99.90;;;;;;4993365;28;20948;-62
2024/01/22 07:42:38;;;;;;;3.30;2.07;;;8.00;99.90;;;;;;5002265;28;20535;-65
2024/01/22 07:45:06;;;;;;;4.03;1.70;;;8.10;99.90;;;;;;4967379;28;21969;-63
2024/01/22 07:47:33;;;;;;;7.60;1.77;;;8.30;99.90;;;;;;5005516;28;20497;-63
2024/01/22 07:50:05;;;;;;;3.47;1.53;;;8.30;99.90;;;;;;5012307;28;20758;-62
2024/01/22 07:52:32;;;;;;;14.43;1.53;;;8.50;99.90;;;;;;5003661;28;20697;-67
2024/01/22 07:54:59;;;;;;;9.40;2.00;;;8.60;99.90;;;;;;5009458;28;20527;-65
2024/01/22 07:57:26;;;;;;;7.07;2.80;;;8.60;99.90;;;;;;5000688;28;20578;-67
2024/01/22 07:59:52;;;;;;;3.40;1.97;;;8.70;99.90;;;;;;4997028;28;20723;-68
2024/01/22 08:02:19;;;;;;;2.40;1.20;;;8.70;99.90;;;;;;4963561;28;20535;-66
2024/01/22 08:04:46;;;;;;;4.67;1.90;;;8.70;99.90;;;;;;4957170;28;20478;-67
2024/01/22 08:07:15;;;;;;;1.70;0.80;;;8.70;99.90;;;;;;4974332;28;20914;-67
2024/01/22 08:09:42;;;;;;;3.13;2.50;;;8.70;99.90;;;;;;4981849;28;20590;-66
2024/01/22 08:12:09;;;;;;;5.60;2.20;;;8.80;99.90;;;;;;4995579;28;20484;-69
2024/01/22 08:14:35;;;;;;;4.23;1.40;;;8.80;99.90;;;;;;4978880;28;20594;-66
2024/01/22 08:17:02;;;;;;;2.77;1.43;;;8.80;99.90;;;;;;4990718;28;20488;-68
2024/01/22 08:19:30;;;;;;;3.77;2.00;;;8.80;99.90;;;;;;5013003;28;20905;-66
2024/01/22 08:21:57;;;;;;;21.83;2.10;;;8.90;99.90;;;;;;5000976;28;20484;-68
2024/01/22 08:24:25;;;;;;;3.50;1.50;;;8.90;99.90;;;;;;4997792;28;20598;-68
2024/01/22 08:26:52;;;;;;;6.13;1.77;;;8.90;99.90;;;;;;4988254;28;20613;-69
2024/01/22 08:29:19;;;;;;;2.93;1.00;;;9.00;99.90;;;;;;4980311;28;20494;-71
2024/01/22 08:31:46;;;;;;;2.67;2.37;;;9.00;99.90;;;;;;5004092;28;20912;-67
2024/01/22 08:34:13;;;;;;;41.77;4.00;;;;;;;;;;4999019;28;20821;-68
2024/01/22 08:36:40;;;;;;;9.40;1.40;;;9.10;99.90;;;;;;4940556;28;20872;-68
2024/01/22 08:39:09;;;;;;;3.00;1.10;;;9.10;99.90;;;;;;5001804;28;20476;-67
2024/01/22 08:41:38;;;;;;;10.80;1.00;;;9.10;99.90;;;;;;5009912;28;20481;-68
2024/01/22 08:44:05;;;;;;;7.33;1.70;;;9.10;99.90;;;;;;5001028;28;20476;-68
2024/01/22 08:46:32;;;;;;;3.20;1.43;;;9.20;99.90;;;;;;5002561;28;20500;-70
2024/01/22 08:48:59;;;;;;;3.07;1.70;;;9.20;99.90;;;;;;5009956;28;20547;-70
2024/01/22 08:51:26;;;;;;;2.77;1.20;;;9.20;99.90;;;;;;4977015;28;20830;-68
2024/01/22 08:53:53;;;;;;;4.50;1.60;;;9.20;99.90;;;;;;4993597;28;20472;-69
2024/01/22 08:56:23;;;;;;;17.90;2.47;;;9.30;99.90;;;;;;5004636;28;20893;-70
2024/01/22 08:58:52;;;;;;;4.13;1.90;;;9.20;99.90;;;;;;5007603;28;20631;-68
2024/01/22 09:01:19;;;;;;;1.80;1.70;;;9.30;99.90;;;;;;5010678;28;20840;-70
2024/01/22 09:03:46;;;;;;;11.10;2.37;;;9.20;99.90;;;;;;4998822;28;20481;-67
2024/01/22 09:06:12;;;;;;;3.13;2.03;;;9.20;99.90;;;;;;5003230;28;20488;-68
2024/01/22 09:08:42;;;;;;;3.90;1.80;;;9.30;99.90;;;;;;5006927;28;20574;-67
2024/01/22 09:11:09;;;;;;;19.63;1.90;;;9.20;99.90;;;;;;5007259;28;20521;-69
2024/01/22 09:13:37;;;;;;;2.10;1.43;;;9.20;99.90;;;;;;4996191;28;20494;-70
2024/01/22 09:16:06;;;;;;;2.60;1.63;;;9.20;99.90;;;;;;4993909;28;20496;-67
2024/01/22 09:18:33;;;;;;;3.90;1.57;;;9.20;99.90;;;;;;5009472;28;20492;-67
2024/01/22 09:20:59;;;;;;;9.60;1.83;;;9.30;99.90;;;;;;5007296;28;20562;-69
2024/01/22 09:23:26;;;;;;;2.30;1.10;;;9.30;99.90;;;;;;5011863;28;20562;-71
2024/01/22 09:25:53;;;;;;;21.50;3.27;;;9.30;99.90;;;;;;4998524;28;20950;-68
2024/01/22 09:28:21;;;;;;;1.80;1.27;;;9.30;99.90;;;;;;5009278;28;20484;-67
2024/01/22 09:30:48;;;;;;;14.80;2.40;;;9.30;99.90;;;;;;4999695;28;20888;-70
2024/01/22 09:33:16;;;;;;;3.97;1.57;;;9.30;99.90;;;;;;5003637;28;20989;-67
2024/01/22 09:35:43;;;;;;;4.43;1.30;;;9.30;99.90;;;;;;5005730;28;20480;-70
2024/01/22 09:38:10;;;;;;;18.03;1.90;;;9.30;99.90;;;;;;5010633;28;20481;-69
2024/01/22 09:40:37;;;;;;;5.17;1.83;;;9.30;99.90;;;;;;5007933;28;20480;-66
2024/01/22 09:43:04;;;;;;;5.90;2.63;;;9.20;99.90;;;;;;5010080;28;20489;-66
2024/01/22 09:45:34;;;;;;;9.50;2.13;;;9.10;99.90;;;;;;5010503;28;20893;-65
2024/01/22 09:48:02;;;;;;;3.33;2.00;;;9.10;99.90;;;;;;5005814;28;20764;-65
2024/01/22 09:50:30;;;;;;;2.00;1.33;;;9.20;99.90;;;;;;5007044;28;20874;-65
2024/01/22 09:53:02;;;;;;;3.70;2.20;;;9.10;99.90;;;;;;4979978;28;20529;-64
2024/01/22 09:55:29;;;;;;;2.87;2.00;;;9.10;99.90;;;;;;4984574;28;20578;-64
2024/01/22 09:58:00;;;;;;;2.23;1.70;;;;;;;;;;4988334;28;20802;-65
2024/01/22 10:00:27;;;;;;;10.10;2.50;;;9.10;99.90;;;;;;4992569;28;20590;-63
2024/01/22 10:02:55;;;;;;;8.73;1.97;;;9.10;99.90;;;;;;4977399;28;20559;-63
2024/01/22 10:05:22;;;;;;;13.60;2.03;;;9.20;99.90;;;;;;5010318;28;20481;-65
2024/01/22 10:07:50;;;;;;;3.20;2.10;;;9.20;99.90;;;;;;4995841;28;20484;-65
2024/01/22 10:10:20;;;;;;;2.43;2.20;;;9.10;99.90;;;;;;4996183;28;20950;-64
2024/01/22 10:13:04;;;;;;;2.10;1.57;;;9.20;99.90;;;;;;5009019;28;20480;-65
2024/01/22 10:15:32;;;;;;;3.07;2.40;;;9.10;99.90;;;;;;4973156;28;20920;-64
2024/01/22 10:18:10;;;;;;;5.40;2.33;;;9.10;99.90;;;;;;5005062;28;20549;-65
2024/01/22 10:20:38;;;;;;;3.23;1.50;;;9.20;99.90;;;;;;4975046;28;20481;-64
2024/01/22 10:23:07;;;;;;;2.70;2.00;;;9.20;99.90;;;;;;5009590;28;20815;-63
2024/01/22 10:25:35;;;;;;;4.83;2.27;;;9.20;99.90;;;;;;4995594;28;20481;-63
2024/01/22 10:28:10;;;;;;;5.37;1.97;;;9.30;99.90;;;;;;4996470;28;20473;-65
2024/01/22 10:30:39;;;;;;;5.23;1.97;;;9.30;99.90;;;;;;4978228;28;20803;-65
2024/01/22 10:33:13;;;;;;;5.17;2.43;;;9.20;99.90;;;;;;4996100;28;20481;-61
2024/01/22 10:35:40;;;;;;;2.70;1.90;;;9.30;99.90;;;;;;4995066;28;21011;-65
2024/01/22 10:38:10;;;;;;;1.93;1.40;;;9.40;99.90;;;;;;4981100;28;20567;-64
2024/01/22 10:40:37;;;;;;;8.63;2.10;;;9.60;99.90;;;;;;5013400;28;20538;-63
2024/01/22 10:43:23;;;;;;;3.60;1.50;;;9.60;99.90;;;;;;4976746;28;20543;-64
2024/01/22 10:45:52;;;;;;;4.43;2.07;;;9.60;99.90;;;;;;4994301;28;20485;-65
2024/01/22 10:48:20;;;;;;;2.20;1.50;;;9.60;99.90;;;;;;4984722;28;20821;-63
2024/01/22 10:50:48;;;;;;;2.97;1.33;;;9.60;99.90;;;;;;4987581;28;20538;-63
2024/01/22 10:53:17;;;;;;;18.53;2.17;;;9.70;99.90;;;;;;4989294;28;20485;-64
2024/01/22 10:55:56;;;;;;;2.37;1.50;;;9.80;99.90;;;;;;4998940;28;21140;-65
2024/01/22 10:58:26;;;;;;;4.73;1.60;;;9.90;99.90;;;;;;5011794;28;20517;-65
2024/01/22 11:00:58;;;;;;;9.53;2.13;;;9.90;99.90;;;;;;5005613;28;20531;-65
2024/01/22 11:03:28;;;;;;;10.20;1.77;;;10.00;99.90;;;;;;4992887;28;21313;-68
2024/01/22 11:05:59;;;;;;;1.80;1.00;;;10.10;99.90;;;;;;4966231;28;20542;-66
2024/01/22 11:08:30;;;;;;;13.90;1.83;;;10.10;99.90;;;;;;4987901;28;20565;-66
2024/01/22 11:10:58;;;;;;;3.67;2.00;;;10.10;99.90;;;;;;5005919;28;20476;-64
2024/01/22 11:13:25;;;;;;;1.90;1.20;;;10.10;99.90;;;;;;5005375;28;20890;-64
2024/01/22 11:15:52;;;;;;;2.00;1.40;;;10.10;99.90;;;;;;4942028;28;20485;-66
2024/01/22 11:18:19;;;;;;;2.70;1.60;;;10.00;99.90;;;;;;4987017;28;20483;-64
2024/01/22 11:20:46;;;;;;;35.47;3.10;;;10.00;99.90;;;;;;5007219;28;20493;-63
2024/01/22 11:23:16;;;;;;;2.30;1.50;;;10.10;99.90;;;;;;4982750;28;21683;-65
2024/01/22 11:25:45;;;;;;;8.00;1.63;;;10.20;99.90;;;;;;4995083;28;20958;-68
2024/01/22 11:28:15;;;;;;;10.73;1.90;;;10.00;99.90;;;;;;5001461;28;20477;-67
2024/01/22 11:30:44;;;;;;;1.70;1.03;;;9.90;99.90;;;;;;5005704;28;20856;-69
2024/01/22 11:33:31;;;;;;;4.17;1.77;;;10.10;99.90;;;;;;5005009;28;20614;-70
2024/01/22 11:35:57;;;;;;;9.37;1.77;;;10.20;99.90;;;;;;5010665;28;20848;-69
2024/01/22 11:38:51;;;;;;;2.17;1.20;;;10.10;99.90;;;;;;5007287;28;20480;-71
2024/01/22 11:41:30;;;;;;;7.90;1.70;;;10.20;99.90;;;;;;4988404;28;20528;-69
2024/01/22 11:43:56;;;;;;;3.77;1.47;;;10.30;99.90;;;;;;4966505;28;20570;-71
2024/01/22 11:46:23;;;;;;;8.47;1.57;;;10.30;99.90;;;;;;4992633;28;20480;-69
2024/01/22 11:48:54;;;;;;;6.30;1.90;;;10.20;99.90;;;;;;5005595;28;20477;-68
2024/01/22 11:51:25;;;;;;;2.40;1.90;;;10.20;99.90;;;;;;4993108;28;20546;-67
2024/01/22 11:53:53;;;;;;;5.23;1.70;;;10.20;99.90;;;;;;4997011;28;20649;-68
2024/01/22 11:56:21;;;;;;;12.03;2.23;;;10.30;99.90;;;;;;4987081;28;20523;-68
2024/01/22 11:58:52;;;;;;;3.40;1.60;;;10.30;99.90;;;;;;4980581;28;20563;-68
2024/01/22 12:01:20;;;;;;;4.33;1.70;;;10.20;99.90;;;;;;5000899;28;20551;-69
2024/01/22 12:03:47;;;;;;;4.67;2.43;;;;;;;;;;4983885;28;20890;-67
2024/01/22 12:06:14;;;;;;;5.77;2.20;;;10.20;99.90;;;;;;4949902;28;20861;-67
2024/01/22 12:08:41;;;;;;;6.07;2.17;;;10.10;99.90;;;;;;4989286;28;20541;-68
2024/01/22 12:11:09;;;;;;;20.23;3.07;;;10.20;99.90;;;;;;4997699;28;20477;-66
2024/01/22 12:13:38;;;;;;;12.67;2.00;;;10.30;99.90;;;;;;4970242;28;20731;-67
2024/01/22 12:16:13;;;;;;;27.13;3.30;;;10.40;99.90;;;;;;4994697;28;20491;-68
2024/01/22 12:18:42;;;;;;;4.90;1.47;;;10.50;99.90;;;;;;4979689;28;20623;-69
2024/01/22 12:21:10;;;;;;;2.10;1.57;;;10.30;99.90;;;;;;5009170;28;20482;-67
2024/01/22 12:23:37;;;;;;;9.87;1.43;;;10.30;99.90;;;;;;4995301;28;20477;-68
2024/01/22 12:26:03;;;;;;;8.70;1.87;;;10.10;99.90;;;;;;4980383;28;20559;-68
2024/01/22 12:28:30;;;;;;;3.07;1.73;;;10.20;99.90;;;;;;4983294;28;20569;-69
2024/01/22 12:31:00;;;;;;;10.73;2.00;;;10.10;99.90;;;;;;5010458;28;20786;-68
2024/01/22 12:33:30;;;;;;;12.37;2.47;;;10.10;99.90;;;;;;5004692;28;20476;-67
2024/01/22 12:36:10;;;;;;;2.60;1.80;;;10.00;99.90;;;;;;4964647;28;20481;-64
2024/01/22 12:38:47;;;;;;;16.33;1.97;;;10.00;99.90;;;;;;5004698;28;20925;-65
2024/01/22 12:41:14;;;;;;;5.40;2.00;;;10.00;99.90;;;;;;4943833;28;20493;-65
2024/01/22 12:43:42;;;;;;;16.60;3.13;;;9.90;99.90;;;;;;4996344;28;21026;-64
2024/01/22 12:46:10;;;;;;;4.90;1.50;;;10.10;99.90;;;;;;4976351;28;20479;-63
2024/01/22 12:48:38;;;;;;;3.20;1.63;;;10.10;99.90;;;;;;4984468;28;20935;-64
2024/01/22 12:51:06;;;;;;;6.43;2.60;;;10.10;99.90;;;;;;4989057;28;20489;-65
2024/01/22 12:53:33;;;;;;;9.27;1.70;;;10.00;99.90;;;;;;5002203;28;20481;-63
2024/01/22 12:56:01;;;;;;;3.53;1.33;;;10.10;99.90;;;;;;5000688;28;21238;-65
2024/01/22 12:58:28;;;;;;;2.53;2.33;;;10.00;99.90;;;;;;4987938;28;20902;-66